CheckWX is a tool to help pilots better visualize weather data.  It is not intended as a substitute for an official pre-flight weather briefing.

13:31:25 UTC

VIDP METAR
Indira Gandhi International Airport
New Delhi, India
Current

31 mins ago

VIDP 131300Z 30007KT 1000 R28/P2000 R29/P2000 BR SCT035 FEW040CB BKN100 16/14 Q1014 NOSIG
Observed
Dec-13 @ 13:00 UTC
Wind
  • 300° at 7 KTS
Visibility
1,000 meters
Flight Rules
LIFR
Conditions
Mist
Cloud Levels
  • Scattered at 3,500' AGL
  • Few at 4,000' AGL
  • Broken at 10,000' AGL
Temperature
16°C / 61°F
Dewpoint
14°C / 57°F
Humidity
88%
Altimeter
29.94" Hg
Pressure
1013.92 hPa
Previous

1 hour ago

VIDP 131230Z 29007KT 1000 R28/P2000 R29/P2000 BR SCT035 FEW040CB BKN100 16/14 Q1013 NOSIG
Observed
Dec-13 @ 12:30 UTC
Wind
  • 290° at 7 KTS
Visibility
1,000 meters
Flight Rules
LIFR
Conditions
Mist
Cloud Levels
  • Scattered at 3,500' AGL
  • Few at 4,000' AGL
  • Broken at 10,000' AGL
Temperature
16°C / 61°F
Dewpoint
14°C / 57°F
Humidity
88%
Altimeter
29.91" Hg
Pressure
1012.92 hPa
Previous

2 hours ago

VIDP 131200Z 28007KT 1000 R28/1600 R29/1300 BR SCT035 FEW040CB BKN100 16/14 Q1013 NOSIG
Observed
Dec-13 @ 12:00 UTC
Wind
  • 280° at 7 KTS
Visibility
1,000 meters
Flight Rules
LIFR
Conditions
Mist
Cloud Levels
  • Scattered at 3,500' AGL
  • Few at 4,000' AGL
  • Broken at 10,000' AGL
Temperature
16°C / 61°F
Dewpoint
14°C / 57°F
Humidity
88%
Altimeter
29.91" Hg
Pressure
1012.92 hPa